Time;durP1;ratioP1;P1;durP2;ratioP2;P2;SDS_P1;SDS_P2;PMS_P1;PMS_P2;Temp;Humidity;BMP_temperature;BMP_pressure;BME280_temperature;BME280_humidity;BME280_pressure;Samples;Min_cycle;Max_cycle;Signal;HPM_P1;HPM_P2
2022/08/21 00:00:17;;;;;;;1.47;1.37;;;;;;;;;;5091563;28;20568;-74
2022/08/21 00:02:48;;;;;;;1.80;1.27;;;;;;;;;;5090992;28;20449;-69
2022/08/21 00:05:16;;;;;;;3.27;1.57;;;;;;;;;;5091734;28;20827;-75
2022/08/21 00:07:43;;;;;;;2.20;1.30;;;;;;;;;;5091662;28;20946;-77
2022/08/21 00:10:12;;;;;;;1.80;1.57;;;;;;;;;;5091264;28;20445;-77
2022/08/21 00:12:39;;;;;;;1.30;1.10;;;;;;;;;;5091385;28;21002;-76
2022/08/21 00:15:08;;;;;;;3.20;1.50;;;;;;;;;;5090828;28;20473;-78
2022/08/21 00:17:36;;;;;;;1.90;1.20;;;;;;;;;;5091056;28;20445;-76
2022/08/21 00:20:03;;;;;;;2.37;1.30;;;;;;;;;;5090857;28;20437;-77
2022/08/21 00:22:30;;;;;;;1.43;1.33;;;;;;;;;;5090995;28;20540;-76
2022/08/21 00:24:58;;;;;;;1.77;1.53;;;;;;;;;;5090387;28;20791;-76
2022/08/21 00:27:26;;;;;;;4.33;1.90;;;;;;;;;;5091159;28;20942;-76
2022/08/21 00:29:55;;;;;;;2.40;1.83;;;;;;;;;;5077583;28;20444;-77
2022/08/21 00:32:22;;;;;;;2.47;1.70;;;;;;;;;;5090693;28;20505;-77
2022/08/21 00:34:49;;;;;;;3.80;2.60;;;;;;;;;;5090147;28;20818;-77
2022/08/21 00:37:16;;;;;;;2.40;1.33;;;;;;;;;;5091116;28;20440;-76
2022/08/21 00:39:44;;;;;;;1.90;1.27;;;18.20;1.00;;;;;;5090839;28;20452;-76
2022/08/21 00:42:14;;;;;;;2.03;1.60;;;;;;;;;;5090905;28;20480;-76
2022/08/21 00:44:43;;;;;;;1.87;1.53;;;;;;;;;;5091019;28;20437;-77
2022/08/21 00:47:10;;;;;;;1.50;1.40;;;;;;;;;;5091119;28;20448;-76
2022/08/21 00:49:37;;;;;;;2.33;1.60;;;;;;;;;;5091058;28;20523;-76
2022/08/21 00:52:05;;;;;;;3.57;1.60;;;;;;;;;;5089827;28;20483;-75
2022/08/21 00:54:33;;;;;;;3.43;1.50;;;;;;;;;;5090720;28;20444;-76
2022/08/21 00:57:02;;;;;;;1.93;1.20;;;;;;;;;;5089921;28;20835;-76
2022/08/21 00:59:31;;;;;;;1.50;1.40;;;;;;;;;;5091063;28;20444;-76
2022/08/21 01:01:59;;;;;;;2.13;1.70;;;16.40;99.90;;;;;;5089755;28;20524;-76
2022/08/21 01:04:27;;;;;;;1.90;1.53;;;16.00;99.90;;;;;;5090076;28;21028;-76
2022/08/21 01:06:54;;;;;;;1.70;1.30;;;15.90;1.00;;;;;;5089940;28;20443;-76
2022/08/21 01:09:21;;;;;;;1.77;1.33;;;15.90;1.00;;;;;;5090741;28;20444;-76
2022/08/21 01:11:49;;;;;;;1.87;1.40;;;15.90;99.90;;;;;;5090046;28;20444;-76
2022/08/21 01:14:18;;;;;;;1.80;1.40;;;15.80;1.00;;;;;;5090200;28;20440;-75
2022/08/21 01:16:49;;;;;;;3.03;1.67;;;15.70;99.90;;;;;;5090048;28;20440;-71
2022/08/21 01:19:19;;;;;;;1.83;1.33;;;15.70;84.90;;;;;;5090922;28;20436;-75
2022/08/21 01:21:48;;;;;;;1.57;1.30;;;15.80;1.00;;;;;;5090244;28;20780;-75
2022/08/21 01:24:15;;;;;;;1.90;1.37;;;15.80;99.90;;;;;;5090188;28;20442;-74
2022/08/21 01:26:43;;;;;;;2.60;1.50;;;15.90;99.90;;;;;;5090882;28;20440;-76
2022/08/21 01:29:16;;;;;;;1.33;1.20;;;15.80;49.80;;;;;;5090714;28;20528;-76
2022/08/21 01:31:43;;;;;;;1.50;1.40;;;15.80;1.00;;;;;;5090403;28;20448;-76
2022/08/21 01:34:11;;;;;;;1.40;1.30;;;15.60;99.90;;;;;;5090258;28;20559;-76
2022/08/21 01:36:37;;;;;;;1.90;1.57;;;15.50;1.00;;;;;;5092498;28;20440;-76
2022/08/21 01:39:06;;;;;;;1.53;1.20;;;15.40;1.00;;;;;;5093794;28;20456;-76
2022/08/21 01:41:33;;;;;;;1.17;1.07;;;15.30;1.00;;;;;;5094151;28;20960;-76
2022/08/21 01:44:00;;;;;;;1.43;1.33;;;15.30;1.00;;;;;;5093353;28;20941;-76
2022/08/21 01:46:27;;;;;;;1.77;1.67;;;15.20;1.00;;;;;;5094461;28;20439;-76
2022/08/21 01:48:53;;;;;;;2.27;1.70;;;15.10;1.00;;;;;;5093828;28;20950;-76
2022/08/21 01:51:21;;;;;;;2.90;1.90;;;15.20;1.00;;;;;;5094477;28;20450;-75
2022/08/21 01:53:47;;;;;;;1.70;1.50;;;15.10;1.00;;;;;;5093029;28;20932;-76
2022/08/21 01:56:17;;;;;;;3.67;1.70;;;15.20;1.00;;;;;;5094615;28;20440;-73
2022/08/21 01:58:46;;;;;;;2.10;1.90;;;15.40;1.00;;;;;;5094374;28;20438;-76
2022/08/21 02:01:14;;;;;;;9.13;2.00;;;15.30;1.00;;;;;;5094012;28;20482;-76
2022/08/21 02:03:42;;;;;;;2.07;1.60;;;15.40;99.90;;;;;;5093319;28;20959;-76
2022/08/21 02:06:13;;;;;;;2.17;1.23;;;15.40;99.90;;;;;;5093730;28;20499;-76
2022/08/21 02:08:40;;;;;;;3.60;1.50;;;15.30;1.00;;;;;;5094132;28;20449;-76
2022/08/21 02:11:07;;;;;;;1.80;1.50;;;15.30;1.00;;;;;;5093497;28;20447;-76
2022/08/21 02:13:35;;;;;;;2.50;1.23;;;15.30;1.00;;;;;;5093348;28;20571;-76
2022/08/21 02:16:03;;;;;;;2.70;1.80;;;15.10;1.00;;;;;;5093330;28;20447;-76
2022/08/21 02:18:30;;;;;;;2.10;1.50;;;15.10;1.00;;;;;;5093646;28;20473;-76
2022/08/21 02:20:57;;;;;;;1.63;1.43;;;15.00;1.00;;;;;;5093364;28;20559;-76
2022/08/21 02:23:24;;;;;;;1.87;1.67;;;14.80;48.30;;;;;;5093321;28;20863;-76
2022/08/21 02:25:51;;;;;;;2.10;1.90;;;14.80;82.80;;;;;;5093084;28;20437;-75
2022/08/21 02:28:18;;;;;;;2.07;1.73;;;14.80;99.90;;;;;;5093861;28;20556;-76
2022/08/21 02:30:48;;;;;;;1.80;1.40;;;14.80;23.90;;;;;;5093160;28;20547;-73
2022/08/21 02:33:16;;;;;;;2.03;1.23;;;14.70;72.80;;;;;;5093098;28;20484;-75
2022/08/21 02:35:44;;;;;;;1.73;1.20;;;14.60;99.90;;;;;;5093944;28;20436;-76
2022/08/21 02:38:14;;;;;;;4.67;1.70;;;14.70;99.90;;;;;;5093361;28;20429;-75
2022/08/21 02:40:45;;;;;;;3.03;1.83;;;14.60;99.90;;;;;;5093599;28;20448;-76
2022/08/21 02:43:12;;;;;;;2.23;1.70;;;14.60;99.90;;;;;;5092901;28;20441;-76
2022/08/21 02:45:40;;;;;;;2.20;1.50;;;14.70;99.90;;;;;;5093480;28;20445;-76
2022/08/21 02:48:11;;;;;;;1.90;1.70;;;14.60;90.90;;;;;;5091349;28;20467;-75
2022/08/21 02:50:44;;;;;;;1.37;1.10;;;14.60;99.90;;;;;;5093036;28;20445;-75
2022/08/21 02:53:16;;;;;;;2.53;1.47;;;14.50;99.90;;;;;;5092730;28;20516;-76
2022/08/21 02:55:44;;;;;;;3.60;2.00;;;14.60;99.90;;;;;;5093041;28;20552;-75
2022/08/21 02:58:12;;;;;;;2.47;1.83;;;14.50;99.90;;;;;;5093362;28;20437;-75
2022/08/21 03:00:40;;;;;;;2.07;1.43;;;14.50;99.90;;;;;;5093473;28;20536;-75
2022/08/21 03:03:08;;;;;;;1.97;1.50;;;14.50;99.90;;;;;;5091849;28;20488;-76
2022/08/21 03:05:37;;;;;;;1.50;1.20;;;14.40;99.90;;;;;;5093000;28;20441;-77
2022/08/21 03:08:09;;;;;;;1.30;1.20;;;14.40;99.90;;;;;;5092813;28;20558;-76
2022/08/21 03:10:36;;;;;;;6.43;2.33;;;14.40;99.90;;;;;;5079735;28;20524;-76
2022/08/21 03:13:03;;;;;;;1.80;1.50;;;14.40;99.90;;;;;;5091572;28;20472;-76
2022/08/21 03:15:31;;;;;;;4.47;2.00;;;14.50;99.90;;;;;;5092800;28;20437;-75
2022/08/21 03:17:58;;;;;;;2.00;1.57;;;14.50;99.90;;;;;;5091883;28;20429;-76
2022/08/21 03:20:28;;;;;;;1.87;1.67;;;14.40;99.90;;;;;;5092284;28;20991;-76
2022/08/21 03:22:56;;;;;;;2.60;1.93;;;14.50;99.90;;;;;;5091790;28;20493;-75
2022/08/21 03:25:25;;;;;;;2.77;2.00;;;14.40;99.90;;;;;;5092600;28;20448;-75
2022/08/21 03:27:52;;;;;;;3.83;1.90;;;14.40;99.90;;;;;;5091675;28;20884;-75
2022/08/21 03:30:22;;;;;;;3.13;1.80;;;14.40;99.90;;;;;;5092318;28;20527;-75
2022/08/21 03:32:49;;;;;;;1.97;1.60;;;14.40;99.90;;;;;;5091418;28;20459;-76
2022/08/21 03:35:17;;;;;;;2.93;1.33;;;14.40;99.90;;;;;;5051866;28;20863;-74
2022/08/21 03:37:45;;;;;;;4.50;1.60;;;14.40;99.90;;;;;;5051882;28;20934;-77
2022/08/21 03:40:14;;;;;;;2.70;1.83;;;14.40;99.90;;;;;;5051682;28;20932;-76
2022/08/21 03:42:41;;;;;;;1.73;1.43;;;14.30;99.90;;;;;;5051689;28;20475;-76
2022/08/21 03:45:09;;;;;;;2.93;1.70;;;14.20;99.90;;;;;;5051360;28;20788;-75
2022/08/21 03:47:37;;;;;;;1.93;1.60;;;14.20;99.90;;;;;;5051794;28;20534;-75
2022/08/21 03:50:04;;;;;;;2.87;1.40;;;14.50;99.90;;;;;;5051327;28;20442;-76
2022/08/21 03:52:31;;;;;;;2.03;1.70;;;14.50;99.90;;;;;;5051318;28;20493;-75
2022/08/21 03:54:59;;;;;;;3.10;1.60;;;14.30;99.90;;;;;;5050999;28;20442;-75
2022/08/21 03:57:26;;;;;;;2.10;1.80;;;14.20;99.90;;;;;;5051220;28;20444;-75
2022/08/21 03:59:53;;;;;;;4.77;2.17;;;14.20;99.90;;;;;;5050870;28;20534;-76
2022/08/21 04:02:22;;;;;;;2.93;1.87;;;14.30;99.90;;;;;;5050678;28;20501;-75
2022/08/21 04:04:49;;;;;;;1.90;1.57;;;14.30;99.90;;;;;;5050796;28;20439;-74
2022/08/21 04:07:15;;;;;;;8.37;1.90;;;14.20;99.90;;;;;;5038289;28;20556;-74
2022/08/21 04:09:42;;;;;;;6.13;1.80;;;14.40;99.90;;;;;;5051418;28;20449;-74
2022/08/21 04:12:11;;;;;;;5.77;2.10;;;14.40;99.90;;;;;;5051106;28;20792;-76
2022/08/21 04:14:38;;;;;;;2.00;1.80;;;14.50;75.10;;;;;;5051017;28;20445;-76
2022/08/21 04:17:05;;;;;;;2.00;1.80;;;14.50;83.90;;;;;;5050403;28;20457;-76
2022/08/21 04:19:32;;;;;;;2.23;2.03;;;14.40;82.30;;;;;;5050738;28;20430;-76
2022/08/21 04:21:58;;;;;;;2.50;1.93;;;14.30;99.90;;;;;;5050138;28;20482;-76
2022/08/21 04:24:25;;;;;;;1.47;1.37;;;14.20;99.90;;;;;;5050846;28;20538;-75
2022/08/21 04:26:52;;;;;;;2.00;1.27;;;14.20;99.90;;;;;;5050455;28;20454;-76
2022/08/21 04:29:20;;;;;;;2.27;1.57;;;14.30;99.90;;;;;;5050960;28;20529;-75
2022/08/21 04:31:47;;;;;;;1.53;1.43;;;14.30;99.90;;;;;;5049764;28;20449;-75
2022/08/21 04:34:14;;;;;;;2.40;1.83;;;14.20;99.90;;;;;;5074484;28;20464;-73
2022/08/21 04:36:41;;;;;;;4.20;2.07;;;14.20;99.90;;;;;;5091458;28;20485;-75
2022/08/21 04:39:09;;;;;;;1.47;1.37;;;14.10;99.90;;;;;;5090911;28;20452;-76
2022/08/21 04:41:36;;;;;;;2.60;1.73;;;14.40;99.90;;;;;;5091049;28;20535;-76
2022/08/21 04:44:04;;;;;;;1.70;1.40;;;14.50;84.20;;;;;;5090086;28;20490;-75
2022/08/21 04:46:32;;;;;;;2.60;1.67;;;14.30;99.90;;;;;;5090762;28;20912;-75
2022/08/21 04:48:59;;;;;;;1.70;1.47;;;14.20;99.90;;;;;;5090454;28;20850;-76
2022/08/21 04:51:30;;;;;;;2.17;1.60;;;14.20;99.90;;;;;;5091035;28;20452;-75
2022/08/21 04:53:59;;;;;;;1.53;1.43;;;14.10;99.90;;;;;;5089829;28;20451;-75
2022/08/21 04:56:31;;;;;;;1.53;1.40;;;14.20;99.90;;;;;;5091113;28;20459;-76
2022/08/21 04:59:00;;;;;;;5.37;1.93;;;14.50;10.90;;;;;;5090473;28;20437;-75
2022/08/21 05:01:31;;;;;;;2.57;1.77;;;14.30;53.10;;;;;;5091175;28;20441;-76
2022/08/21 05:04:00;;;;;;;3.03;2.17;;;14.40;25.30;;;;;;5076464;28;20447;-76
2022/08/21 05:06:31;;;;;;;4.03;2.20;;;14.20;97.00;;;;;;5090305;28;20945;-75
2022/08/21 05:08:59;;;;;;;2.30;1.53;;;14.20;99.90;;;;;;5090129;28;20516;-77
2022/08/21 05:11:26;;;;;;;4.33;2.07;;;14.20;99.90;;;;;;5089675;28;20544;-76
2022/08/21 05:13:53;;;;;;;3.37;1.97;;;14.20;99.90;;;;;;5089916;28;20448;-76
2022/08/21 05:16:19;;;;;;;2.73;1.80;;;14.10;99.90;;;;;;5090744;28;20437;-76
2022/08/21 05:18:46;;;;;;;2.50;1.43;;;14.10;99.90;;;;;;5089722;28;21006;-75
2022/08/21 05:21:15;;;;;;;2.33;2.10;;;14.00;99.90;;;;;;5090753;28;20436;-75
2022/08/21 05:23:42;;;;;;;1.93;1.67;;;13.90;99.90;;;;;;5090374;28;20567;-76
2022/08/21 05:26:09;;;;;;;1.70;1.40;;;13.90;99.90;;;;;;5090493;28;20440;-76
2022/08/21 05:28:36;;;;;;;2.33;1.70;;;13.90;99.90;;;;;;5090554;28;20437;-76
2022/08/21 05:31:03;;;;;;;2.83;1.70;;;13.90;99.90;;;;;;5089494;28;20454;-76
2022/08/21 05:33:30;;;;;;;3.40;2.30;;;14.00;99.90;;;;;;5089800;28;21013;-76
2022/08/21 05:35:57;;;;;;;1.90;1.50;;;14.00;99.90;;;;;;5089947;28;20453;-76
2022/08/21 05:38:27;;;;;;;2.33;2.10;;;14.10;99.90;;;;;;5090459;28;20531;-76
2022/08/21 05:40:54;;;;;;;6.43;2.20;;;14.20;99.90;;;;;;5089270;28;20519;-76
2022/08/21 05:43:21;;;;;;;2.90;1.63;;;14.30;99.90;;;;;;5089958;28;20481;-76
2022/08/21 05:45:48;;;;;;;2.30;2.07;;;14.40;99.90;;;;;;5089770;28;20433;-76
2022/08/21 05:48:17;;;;;;;4.10;2.00;;;14.40;99.90;;;;;;5090122;28;20437;-73
2022/08/21 05:50:45;;;;;;;2.90;2.10;;;14.40;99.90;;;;;;5090444;28;20437;-76
2022/08/21 05:53:13;;;;;;;2.43;2.23;;;14.50;99.90;;;;;;5090227;28;20449;-77
2022/08/21 05:55:42;;;;;;;2.50;2.30;;;14.60;99.90;;;;;;5090260;28;20445;-76
2022/08/21 05:58:09;;;;;;;2.83;1.60;;;14.70;99.90;;;;;;5090210;28;20432;-76
2022/08/21 06:00:35;;;;;;;1.77;1.67;;;14.90;68.40;;;;;;5090032;28;20441;-76
2022/08/21 06:03:02;;;;;;;3.10;1.90;;;15.10;1.00;;;;;;5089529;28;20480;-76
2022/08/21 06:05:30;;;;;;;4.80;2.37;;;15.30;1.00;;;;;;5089794;28;20527;-76
2022/08/21 06:07:57;;;;;;;2.40;1.60;;;15.40;99.90;;;;;;5089769;28;20460;-76
2022/08/21 06:10:24;;;;;;;3.77;1.73;;;15.50;99.90;;;;;;5089703;28;20451;-76
2022/08/21 06:12:55;;;;;;;1.80;1.50;;;15.50;99.90;;;;;;5088965;28;20441;-76
2022/08/21 06:15:22;;;;;;;2.10;1.50;;;15.60;97.80;;;;;;5090322;28;20482;-77
2022/08/21 06:17:49;;;;;;;1.30;1.20;;;15.70;1.00;;;;;;5089392;28;20432;-76
2022/08/21 06:20:16;;;;;;;2.93;1.80;;;15.80;99.90;;;;;;5090165;28;20556;-76
2022/08/21 06:22:43;;;;;;;2.27;2.07;;;16.00;1.00;;;;;;5091890;28;20578;-77
2022/08/21 06:25:10;;;;;;;2.03;1.33;;;;;;;;;;5093516;28;20455;-76
2022/08/21 06:27:37;;;;;;;4.13;1.10;;;;;;;;;;5093652;28;20469;-76
2022/08/21 06:30:06;;;;;;;1.70;1.20;;;;;;;;;;5093215;28;20688;-77
2022/08/21 06:32:34;;;;;;;2.53;1.83;;;;;;;;;;5093235;28;20527;-77
2022/08/21 06:35:01;;;;;;;2.13;1.63;;;;;;;;;;5093389;28;20486;-77
2022/08/21 06:37:28;;;;;;;2.90;2.10;;;16.10;99.90;;;;;;5093473;28;20432;-77
2022/08/21 06:39:54;;;;;;;3.53;1.90;;;17.30;1.00;;;;;;5092769;28;20527;-77
2022/08/21 06:42:21;;;;;;;1.40;1.23;;;17.20;1.00;;;;;;5092806;28;20822;-77
2022/08/21 06:44:48;;;;;;;2.10;1.40;;;17.20;1.00;;;;;;5092976;28;20433;-77
2022/08/21 06:47:16;;;;;;;6.70;1.87;;;17.30;20.80;;;;;;5093235;28;20738;-76
2022/08/21 06:49:44;;;;;;;3.43;2.00;;;17.70;99.90;;;;;;5093064;28;20468;-78
2022/08/21 06:52:12;;;;;;;2.97;2.50;;;17.80;99.90;;;;;;5092981;28;20445;-77
2022/08/21 06:54:39;;;;;;;6.10;2.20;;;18.00;99.90;;;;;;5093099;28;20447;-77
2022/08/21 06:57:06;;;;;;;3.53;1.70;;;18.10;17.10;;;;;;5092618;28;20441;-77
2022/08/21 06:59:34;;;;;;;2.20;1.67;;;18.20;1.00;;;;;;5093348;28;20437;-77
2022/08/21 07:02:01;;;;;;;1.40;1.30;;;18.20;1.00;;;;;;5092849;28;20532;-77
2022/08/21 07:04:29;;;;;;;3.73;2.30;;;18.30;1.00;;;;;;5099459;28;20516;-78
2022/08/21 07:06:56;;;;;;;4.33;2.17;;;18.40;1.00;;;;;;5099259;28;20453;-79
2022/08/21 07:09:23;;;;;;;6.90;2.63;;;18.50;1.00;;;;;;5100951;28;20909;-77
2022/08/21 07:11:54;;;;;;;2.47;1.90;;;18.70;1.00;;;;;;5098728;28;20499;-77
2022/08/21 07:14:21;;;;;;;1.97;1.67;;;18.80;1.00;;;;;;5098314;28;20448;-77
2022/08/21 07:16:48;;;;;;;3.60;2.33;;;18.90;1.00;;;;;;5092130;28;20476;-77
2022/08/21 07:19:15;;;;;;;2.67;1.60;;;18.90;1.00;;;;;;5092808;28;20519;-75
2022/08/21 07:21:44;;;;;;;5.63;1.93;;;18.90;1.00;;;;;;5092353;28;20519;-78
2022/08/21 07:24:11;;;;;;;2.90;2.70;;;19.00;1.00;;;;;;5092938;28;20477;-77
2022/08/21 07:26:39;;;;;;;2.10;1.90;;;19.00;1.00;;;;;;5092521;28;20544;-78
2022/08/21 07:29:07;;;;;;;1.60;1.50;;;19.20;99.90;;;;;;5091807;28;20544;-77
2022/08/21 07:31:33;;;;;;;4.67;1.57;;;19.40;99.90;;;;;;5091903;28;20443;-77
2022/08/21 07:34:00;;;;;;;2.03;1.80;;;19.50;99.90;;;;;;5090712;28;20468;-78
2022/08/21 07:36:27;;;;;;;3.43;2.37;;;19.60;99.90;;;;;;5079629;28;20938;-78
2022/08/21 07:38:55;;;;;;;1.83;1.57;;;19.70;99.90;;;;;;5091415;28;20443;-78
2022/08/21 07:41:25;;;;;;;3.27;2.10;;;19.80;99.90;;;;;;5091787;28;20441;-75
2022/08/21 07:43:52;;;;;;;5.13;2.10;;;19.80;99.90;;;;;;5091626;28;20820;-77
2022/08/21 07:46:19;;;;;;;2.60;1.67;;;19.80;99.90;;;;;;5091808;28;20478;-78
2022/08/21 07:48:46;;;;;;;4.83;2.00;;;19.90;99.90;;;;;;5091506;28;20463;-77
2022/08/21 07:51:14;;;;;;;4.57;2.07;;;19.90;99.90;;;;;;5092447;28;20433;-77
2022/08/21 07:53:42;;;;;;;2.00;1.80;;;20.10;99.90;;;;;;5091744;28;20458;-77
2022/08/21 07:56:11;;;;;;;2.60;2.10;;;20.20;99.90;;;;;;5091396;28;20463;-77
2022/08/21 07:58:38;;;;;;;1.97;1.77;;;20.30;99.90;;;;;;5091796;28;20455;-77
2022/08/21 08:01:06;;;;;;;2.73;1.80;;;20.30;99.90;;;;;;5091363;28;20445;-77
2022/08/21 08:03:33;;;;;;;1.80;1.53;;;20.40;99.90;;;;;;5091062;28;20480;-77
2022/08/21 08:06:00;;;;;;;2.80;2.07;;;20.50;99.90;;;;;;5090979;28;20440;-78
2022/08/21 08:08:27;;;;;;;6.37;2.13;;;20.60;99.90;;;;;;5091667;28;20459;-78
2022/08/21 08:10:57;;;;;;;3.47;2.07;;;20.60;99.90;;;;;;5090828;28;20439;-77
2022/08/21 08:13:25;;;;;;;2.67;2.47;;;20.80;99.90;;;;;;5091180;28;20536;-77
2022/08/21 08:15:53;;;;;;;4.70;2.10;;;20.80;99.90;;;;;;5091108;28;20449;-77
2022/08/21 08:18:19;;;;;;;2.77;2.57;;;20.80;99.90;;;;;;5091552;28;20436;-77
2022/08/21 08:20:46;;;;;;;2.80;2.27;;;20.90;99.90;;;;;;5090727;28;20489;-76
2022/08/21 08:23:15;;;;;;;3.27;1.93;;;20.90;99.90;;;;;;5091049;28;20476;-77
2022/08/21 08:25:42;;;;;;;2.13;1.90;;;21.00;99.90;;;;;;5091686;28;20790;-77
2022/08/21 08:28:09;;;;;;;3.27;2.47;;;21.10;99.90;;;;;;5091007;28;20463;-78
2022/08/21 08:30:37;;;;;;;2.10;1.80;;;21.20;99.90;;;;;;5091462;28;20452;-78
2022/08/21 08:33:04;;;;;;;2.57;2.33;;;21.40;99.90;;;;;;5090110;28;20813;-78
2022/08/21 08:35:31;;;;;;;5.00;2.30;;;21.50;99.90;;;;;;5091434;28;20516;-77
2022/08/21 08:37:58;;;;;;;3.10;2.23;;;21.50;99.90;;;;;;5090705;28;20448;-78
2022/08/21 08:40:33;;;;;;;2.93;2.07;;;21.50;99.90;;;;;;5091229;28;20437;-77
2022/08/21 08:43:01;;;;;;;2.80;2.13;;;21.60;99.90;;;;;;5089937;28;20954;-77
2022/08/21 08:45:30;;;;;;;4.00;1.70;;;21.60;99.90;;;;;;5090767;28;21000;-77
2022/08/21 08:48:04;;;;;;;2.40;2.20;;;21.80;99.90;;;;;;5090643;28;20615;-77
2022/08/21 08:50:50;;;;;;;3.20;2.00;;;21.80;99.90;;;;;;5090869;28;20455;-78
2022/08/21 08:53:21;;;;;;;2.60;1.70;;;21.90;99.90;;;;;;5090725;28;20471;-78
2022/08/21 08:55:52;;;;;;;4.13;2.13;;;22.00;99.90;;;;;;5090129;28;20445;-77
2022/08/21 08:58:24;;;;;;;2.47;2.20;;;22.20;97.30;;;;;;5091285;28;20531;-77
2022/08/21 09:00:54;;;;;;;2.53;2.00;;;22.40;77.00;;;;;;5090727;28;20511;-77
2022/08/21 09:03:24;;;;;;;3.17;1.90;;;22.40;68.50;;;;;;5090688;28;20476;-78
2022/08/21 09:05:58;;;;;;;4.00;2.40;;;22.50;60.80;;;;;;5090090;28;20441;-79
2022/08/21 09:08:41;;;;;;;3.60;2.33;;;22.70;59.10;;;;;;5090549;28;20519;-77
2022/08/21 09:11:13;;;;;;;3.63;2.80;;;22.70;51.40;;;;;;5089996;28;20528;-77
2022/08/21 09:13:51;;;;;;;3.80;3.37;;;22.70;45.00;;;;;;5091003;28;20783;-77
2022/08/21 09:16:31;;;;;;;3.47;2.00;;;23.00;35.20;;;;;;5091035;28;20431;-79
2022/08/21 09:19:08;;;;;;;3.30;2.37;;;23.00;29.00;;;;;;5090368;28;20810;-77
2022/08/21 09:21:42;;;;;;;3.40;2.60;;;23.00;17.50;;;;;;5090362;28;20874;-77
2022/08/21 09:24:23;;;;;;;2.30;2.10;;;23.00;17.20;;;;;;5090556;28;20585;-77
2022/08/21 09:27:01;;;;;;;3.80;1.73;;;23.00;13.30;;;;;;5089947;28;20436;-77
2022/08/21 09:29:32;;;;;;;2.60;2.10;;;23.10;4.80;;;;;;5090425;28;20452;-77
2022/08/21 09:31:59;;;;;;;3.33;2.70;;;23.40;1.00;;;;;;5089524;28;20456;-77
2022/08/21 09:34:29;;;;;;;4.00;2.40;;;23.40;1.00;;;;;;5090316;28;20464;-78
2022/08/21 09:36:57;;;;;;;2.90;2.17;;;23.50;1.00;;;;;;5090030;28;20520;-78
2022/08/21 09:39:27;;;;;;;3.23;2.53;;;23.40;1.00;;;;;;5090583;28;20445;-78
2022/08/21 09:41:58;;;;;;;4.03;3.03;;;23.80;1.00;;;;;;5089764;28;20480;-78
2022/08/21 09:44:28;;;;;;;5.73;2.50;;;23.80;1.00;;;;;;5090309;28;20482;-78
2022/08/21 09:46:56;;;;;;;3.30;2.57;;;23.70;1.00;;;;;;5089870;28;20821;-78
2022/08/21 09:49:32;;;;;;;2.67;2.47;;;23.60;1.00;;;;;;5090808;28;20794;-78
2022/08/21 09:52:00;;;;;;;2.47;2.20;;;23.80;1.00;;;;;;5089459;28;20464;-77
2022/08/21 09:54:30;;;;;;;2.53;2.00;;;23.90;1.00;;;;;;5090129;28;20453;-78
2022/08/21 09:59:46;;;;;;;5.13;2.60;;;;;;;;;;5094139;28;20465;-69
2022/08/21 10:02:34;;;;;;;3.50;2.17;;;;;;;;;;5093867;28;20444;-79
2022/08/21 10:05:04;;;;;;;5.83;2.00;;;;;;;;;;5088936;28;20481;-78
2022/08/21 10:07:32;;;;;;;4.80;2.30;;;;;;;;;;5094357;28;20433;-78
2022/08/21 10:10:00;;;;;;;4.57;1.73;;;;;;;;;;5093325;28;20474;-78
2022/08/21 10:12:31;;;;;;;4.10;2.30;;;;;;;;;;5093563;28;20436;-78
2022/08/21 10:15:01;;;;;;;2.87;2.03;;;;;;;;;;5093579;28;20514;-78
2022/08/21 10:17:32;;;;;;;2.43;2.23;;;;;;;;;;5094052;28;20448;-78
2022/08/21 10:20:04;;;;;;;2.97;2.20;;;;;;;;;;5093898;28;20494;-77
2022/08/21 10:22:38;;;;;;;3.63;2.77;;;;;;;;;;5093533;28;20486;-78
2022/08/21 10:25:10;;;;;;;3.73;2.43;;;;;;;;;;5093542;28;20764;-78
2022/08/21 10:27:42;;;;;;;3.73;2.20;;;;;;;;;;5093770;28;20439;-78
2022/08/21 10:30:11;;;;;;;2.80;2.10;;;;;;;;;;5093810;28;20429;-78
2022/08/21 10:32:54;;;;;;;4.23;2.37;;;;;;;;;;5093632;28;20453;-78
2022/08/21 10:35:24;;;;;;;3.50;2.80;;;;;;;;;;5094099;28;20535;-78
2022/08/21 10:38:14;;;;;;;3.03;1.97;;;;;;;;;;5093224;28;20806;-78
2022/08/21 10:40:44;;;;;;;4.33;2.47;;;;;;;;;;5093413;28;20520;-78
2022/08/21 10:43:18;;;;;;;3.10;2.50;;;;;;;;;;5093711;28;20439;-79
2022/08/21 10:45:52;;;;;;;3.43;2.60;;;;;;;;;;5093364;28;20782;-75
2022/08/21 10:48:24;;;;;;;2.27;2.07;;;;;;;;;;5093753;28;20439;-79
2022/08/21 10:50:53;;;;;;;4.03;2.20;;;;;;;;;;5093207;28;20519;-78
2022/08/21 10:53:38;;;;;;;4.97;2.50;;;;;;;;;;5093124;28;20482;-78
2022/08/21 10:56:12;;;;;;;3.10;1.90;;;;;;;;;;5093285;28;20455;-77
2022/08/21 10:58:41;;;;;;;5.20;2.60;;;;;;;;;;5093477;28;20788;-78
2022/08/21 11:01:11;;;;;;;2.93;2.33;;;;;;;;;;5092438;28;20528;-77
2022/08/21 11:03:42;;;;;;;1.97;1.77;;;;;;;;;;5093677;28;20845;-78
2022/08/21 11:06:12;;;;;;;3.27;2.07;;;;;;;;;;5093538;28;20428;-78
2022/08/21 11:08:43;;;;;;;3.37;2.40;;;;;;;;;;5092381;28;20923;-78
2022/08/21 11:11:11;;;;;;;3.03;2.10;;;;;;;;;;5094078;28;20445;-79
2022/08/21 11:13:40;;;;;;;1.73;1.60;;;;;;;;;;5104415;28;20453;-78
2022/08/21 11:16:15;;;;;;;4.83;3.03;;;;;;;;;;5107193;28;20465;-80
2022/08/21 11:18:45;;;;;;;4.67;2.37;;;;;;;;;;5087191;28;20436;-78
2022/08/21 11:21:20;;;;;;;4.23;2.40;;;;;;;;;;5092566;28;20429;-78
2022/08/21 11:23:54;;;;;;;2.97;1.97;;;;;;;;;;5092553;28;20584;-78
2022/08/21 11:26:26;;;;;;;3.87;2.60;;;;;;;;;;5092716;28;20444;-78
2022/08/21 11:29:03;;;;;;;3.53;2.03;;;;;;;;;;5091900;28;20436;-78
2022/08/21 11:31:39;;;;;;;3.37;2.43;;;;;;;;;;5092115;28;20527;-78
2022/08/21 11:34:13;;;;;;;3.30;2.30;;;;;;;;;;5091509;28;20521;-78
2022/08/21 11:36:44;;;;;;;4.10;2.37;;;;;;;;;;5092809;28;20436;-77
2022/08/21 11:39:18;;;;;;;3.33;2.50;;;;;;;;;;5092668;28;20444;-77
2022/08/21 11:41:49;;;;;;;4.50;2.37;;;;;;;;;;5090788;28;20528;-75
2022/08/21 11:44:20;;;;;;;3.40;3.13;;;;;;;;;;5088703;28;20480;-76
2022/08/21 11:46:49;;;;;;;2.43;1.63;;;;;;;;;;5079637;28;20537;-76
2022/08/21 11:49:21;;;;;;;2.50;2.30;;;;;;;;;;5090057;28;20578;-77
2022/08/21 11:51:50;;;;;;;2.77;2.53;;;;;;;;;;5090685;28;20939;-77
2022/08/21 11:54:22;;;;;;;3.63;2.40;;;;;;;;;;5091136;28;20527;-77
2022/08/21 11:56:52;;;;;;;2.57;1.97;;;;;;;;;;5085711;28;20448;-77
2022/08/21 11:59:22;;;;;;;3.53;2.13;;;;;;;;;;5091499;28;20825;-77
2022/08/21 12:01:50;;;;;;;3.90;2.13;;;;;;;;;;5090659;28;20701;-78
2022/08/21 12:04:20;;;;;;;3.57;2.30;;;;;;;;;;5091475;28;20541;-77
2022/08/21 12:06:49;;;;;;;3.50;2.57;;;;;;;;;;5090602;28;20433;-77
2022/08/21 12:09:31;;;;;;;2.60;2.33;;;;;;;;;;5091209;28;20451;-74
2022/08/21 12:12:02;;;;;;;3.63;2.60;;;;;;;;;;5089897;28;20442;-78
2022/08/21 12:14:37;;;;;;;5.60;2.37;;;;;;;;;;5091450;28;20448;-78
2022/08/21 12:17:06;;;;;;;2.67;2.47;;;;;;;;;;5090825;28;21089;-77
2022/08/21 12:19:34;;;;;;;4.67;2.73;;;;;;;;;;5090214;28;20437;-78
2022/08/21 12:22:09;;;;;;;4.47;2.07;;;;;;;;;;5090379;28;20424;-78
2022/08/21 12:24:39;;;;;;;4.43;2.50;;;;;;;;;;5091543;28;20852;-78
2022/08/21 12:27:15;;;;;;;3.23;2.60;;;;;;;;;;5086091;28;20464;-78
2022/08/21 12:29:48;;;;;;;2.30;1.97;;;;;;;;;;5092909;28;20561;-77
2022/08/21 12:32:24;;;;;;;4.57;2.50;;;;;;;;;;5086760;28;20464;-75
2022/08/21 12:34:53;;;;;;;2.33;1.83;;;;;;;;;;5090085;28;20470;-77
2022/08/21 12:37:23;;;;;;;3.53;2.60;;;;;;;;;;5090217;28;20432;-77
2022/08/21 12:39:53;;;;;;;3.70;2.10;;;;;;;;;;5089998;28;21005;-77
2022/08/21 12:42:22;;;;;;;2.97;2.50;;;;;;;;;;5089489;28;20424;-78
2022/08/21 12:44:51;;;;;;;3.97;2.23;;;;;;;;;;5090448;28;20486;-78
2022/08/21 12:47:23;;;;;;;2.60;2.27;;;;;;;;;;5090108;28;20459;-77
2022/08/21 12:49:56;;;;;;;3.30;1.83;;;;;;;;;;5091385;28;20432;-77
2022/08/21 12:52:24;;;;;;;2.80;1.80;;;;;;;;;;5089928;28;21097;-77
2022/08/21 12:54:53;;;;;;;2.20;2.00;;;;;;;;;;5089937;28;20450;-78
2022/08/21 12:57:21;;;;;;;3.33;2.13;;;;;;;;;;5090354;28;20448;-78
2022/08/21 12:59:53;;;;;;;2.73;2.20;;;;;;;;;;5090388;28;20539;-78
2022/08/21 13:02:21;;;;;;;2.53;2.30;;;;;;;;;;5089367;28;20444;-77
2022/08/21 13:04:49;;;;;;;2.77;2.27;;;;;;;;;;5083514;28;20483;-77
2022/08/21 13:07:17;;;;;;;4.83;2.67;;;;;;;;;;5087631;28;20896;-75
2022/08/21 13:09:48;;;;;;;2.43;2.00;;;;;;;;;;5083976;28;20451;-70
2022/08/21 13:12:17;;;;;;;1.93;1.80;;;;;;;;;;5089046;28;20944;-76
2022/08/21 13:14:47;;;;;;;2.27;2.07;;;;;;;;;;5090093;28;20963;-70
2022/08/21 13:17:15;;;;;;;3.80;2.40;;;;;;;;;;5089331;28;20444;-79
2022/08/21 13:19:42;;;;;;;3.30;1.97;;;;;;;;;;5089228;28;20198;-78
2022/08/21 13:22:19;;;;;;;2.30;2.10;;;;;;;;;;5086403;28;20925;-78
2022/08/21 13:24:49;;;;;;;2.97;2.67;;;;;;;;;;5087659;28;20487;-77
2022/08/21 13:27:22;;;;;;;2.70;2.30;;;;;;;;;;5092470;28;20448;-75
2022/08/21 13:29:49;;;;;;;4.90;2.23;;;;;;;;;;5090669;28;20451;-78
2022/08/21 13:32:23;;;;;;;2.57;2.10;;;23.90;1.00;;;;;;5090535;28;20869;-78
2022/08/21 13:34:51;;;;;;;2.93;2.50;;;27.20;1.00;;;;;;5099608;28;20566;-78
2022/08/21 13:37:18;;;;;;;2.90;2.57;;;26.80;1.00;;;;;;5094967;28;20781;-78